SAS40L ESSA-EETN
Flight info
| Callsign | SAS40L |
|---|---|
| Flight time | 0h 41m |
| Altitude | 29000 |
| Route | TOVRI N851 RIKUM DCT DOBAN |
| Aircraft | CRJ9/M-SDFGIRWY/S |
Departure
| Time | 2026-05-08 05:48 |
|---|---|
| Airport | Stockholm-Arlanda Airport (ESSA) |
Arrival
| Time | 2026-05-08 06:29 |
|---|---|
| Airport | Lennart Meri Tallinn Airport (EETN) |
| Time | Latitude | Longitude | Altitude | Speed | Heading |
|---|---|---|---|---|---|
| 2026-05-08 05:36 | 59.65136 | 17.92896 | 108 ft | 0 kts | 207° |
| 2026-05-08 05:40 | 59.65139 | 17.92899 | 110 ft | 3 kts | 207° |
| 2026-05-08 05:40 | 59.65155 | 17.92916 | 108 ft | 1 kts | 207° |
| 2026-05-08 05:40 | 59.65172 | 17.92927 | 107 ft | 3 kts | 178° |
| 2026-05-08 05:41 | 59.65188 | 17.92915 | 107 ft | 3 kts | 141° |
| 2026-05-08 05:41 | 59.65200 | 17.92890 | 110 ft | 3 kts | 131° |
| 2026-05-08 05:41 | 59.65214 | 17.92863 | 107 ft | 3 kts | 143° |
| 2026-05-08 05:41 | 59.65231 | 17.92842 | 109 ft | 3 kts | 152° |
| 2026-05-08 05:42 | 59.65246 | 17.92826 | 106 ft | 3 kts | 152° |
| 2026-05-08 05:42 | 59.65264 | 17.92807 | 110 ft | 3 kts | 152° |
| 2026-05-08 05:42 | 59.65269 | 17.92802 | 107 ft | 0 kts | 152° |
| 2026-05-08 05:44 | 59.65261 | 17.92809 | 110 ft | 4 kts | 163° |
| 2026-05-08 05:44 | 59.65233 | 17.92767 | 109 ft | 6 kts | 264° |
| 2026-05-08 05:45 | 59.65248 | 17.92643 | 110 ft | 10 kts | 287° |
| 2026-05-08 05:45 | 59.65272 | 17.92510 | 110 ft | 11 kts | 292° |
| 2026-05-08 05:45 | 59.65302 | 17.92346 | 105 ft | 15 kts | 291° |
| 2026-05-08 05:45 | 59.65400 | 17.92287 | 103 ft | 17 kts | 9° |
| 2026-05-08 05:46 | 59.65516 | 17.92327 | 103 ft | 17 kts | 10° |
| 2026-05-08 05:46 | 59.65632 | 17.92369 | 103 ft | 17 kts | 11° |
| 2026-05-08 05:46 | 59.65746 | 17.92414 | 103 ft | 17 kts | 11° |
| 2026-05-08 05:46 | 59.65866 | 17.92449 | 105 ft | 14 kts | 347° |
| 2026-05-08 05:47 | 59.65910 | 17.92341 | 107 ft | 9 kts | 284° |
| 2026-05-08 05:47 | 59.65924 | 17.92223 | 110 ft | 10 kts | 282° |
| 2026-05-08 05:47 | 59.65896 | 17.92111 | 113 ft | 11 kts | 199° |
| 2026-05-08 05:47 | 59.65725 | 17.92049 | 107 ft | 54 kts | 191° |
| 2026-05-08 05:48 | 59.65114 | 17.91828 | 102 ft | 122 kts | 191° |
| 2026-05-08 05:48 | 59.64130 | 17.91489 | 310 ft | 148 kts | 189° |
| 2026-05-08 05:48 | 59.63120 | 17.91033 | 944 ft | 156 kts | 193° |
| 2026-05-08 05:48 | 59.62021 | 17.90433 | 1511 ft | 168 kts | 194° |
| 2026-05-08 05:49 | 59.60852 | 17.90269 | 2128 ft | 179 kts | 173° |
| 2026-05-08 05:49 | 59.59519 | 17.90470 | 2549 ft | 206 kts | 177° |
| 2026-05-08 05:49 | 59.58026 | 17.90467 | 3308 ft | 221 kts | 182° |
| 2026-05-08 05:49 | 59.56498 | 17.90642 | 4167 ft | 228 kts | 158° |
| 2026-05-08 05:50 | 59.55245 | 17.92517 | 5107 ft | 230 kts | 131° |
| 2026-05-08 05:50 | 59.54265 | 17.95022 | 5975 ft | 234 kts | 114° |
| 2026-05-08 05:50 | 59.54062 | 17.98117 | 6845 ft | 232 kts | 73° |
| 2026-05-08 05:50 | 59.54692 | 18.01084 | 7531 ft | 236 kts | 60° |
| 2026-05-08 05:51 | 59.55593 | 18.03801 | 8212 ft | 239 kts | 47° |
| 2026-05-08 05:51 | 59.56828 | 18.06157 | 8612 ft | 257 kts | 38° |
| 2026-05-08 05:51 | 59.58258 | 18.08465 | 8953 ft | 275 kts | 37° |
| 2026-05-08 05:51 | 59.59786 | 18.10937 | 9396 ft | 291 kts | 38° |
| 2026-05-08 05:52 | 59.61339 | 18.13645 | 9881 ft | 305 kts | 46° |
| 2026-05-08 05:52 | 59.62387 | 18.17325 | 10570 ft | 312 kts | 68° |
| 2026-05-08 05:52 | 59.63049 | 18.21428 | 11246 ft | 316 kts | 72° |
| 2026-05-08 05:52 | 59.63681 | 18.25685 | 11694 ft | 330 kts | 72° |
| 2026-05-08 05:53 | 59.64355 | 18.30053 | 12046 ft | 344 kts | 71° |
| 2026-05-08 05:53 | 59.65101 | 18.34659 | 12705 ft | 348 kts | 70° |
| 2026-05-08 05:53 | 59.65880 | 18.39171 | 13373 ft | 353 kts | 69° |
| 2026-05-08 05:53 | 59.66695 | 18.43830 | 14047 ft | 357 kts | 69° |
| 2026-05-08 05:54 | 59.67503 | 18.48449 | 14630 ft | 361 kts | 69° |
| 2026-05-08 05:54 | 59.68333 | 18.53180 | 15219 ft | 365 kts | 68° |
| 2026-05-08 05:54 | 59.69414 | 18.57718 | 15796 ft | 367 kts | 58° |
| 2026-05-08 05:54 | 59.70722 | 18.62075 | 16373 ft | 370 kts | 56° |
| 2026-05-08 05:55 | 59.72074 | 18.66462 | 16960 ft | 374 kts | 56° |
| 2026-05-08 05:55 | 59.73413 | 18.70915 | 17507 ft | 378 kts | 56° |
| 2026-05-08 05:55 | 59.74718 | 18.75485 | 18054 ft | 383 kts | 57° |
| 2026-05-08 05:55 | 59.76061 | 18.80049 | 18594 ft | 385 kts | 54° |
| 2026-05-08 05:56 | 59.77574 | 18.84461 | 19070 ft | 387 kts | 50° |
| 2026-05-08 05:56 | 59.79160 | 18.88782 | 19532 ft | 389 kts | 50° |
| 2026-05-08 05:56 | 59.80764 | 18.93160 | 19990 ft | 393 kts | 50° |
| 2026-05-08 05:56 | 59.82340 | 18.97625 | 20432 ft | 396 kts | 51° |
| 2026-05-08 05:58 | 59.82754 | 18.98824 | 20548 ft | 397 kts | 52° |
| 2026-05-08 05:58 | 59.84125 | 19.02786 | 20922 ft | 400 kts | 51° |
| 2026-05-08 05:59 | 59.85693 | 19.07333 | 21348 ft | 403 kts | 52° |
| 2026-05-08 05:59 | 59.87291 | 19.11970 | 21768 ft | 405 kts | 52° |
| 2026-05-08 05:59 | 59.88894 | 19.16628 | 22178 ft | 408 kts | 52° |
| 2026-05-08 05:59 | 59.90507 | 19.21323 | 22579 ft | 411 kts | 52° |
| 2026-05-08 06:00 | 59.92114 | 19.26010 | 22975 ft | 414 kts | 52° |
| 2026-05-08 06:00 | 59.93738 | 19.30808 | 23303 ft | 419 kts | 52° |
| 2026-05-08 06:00 | 59.95369 | 19.35664 | 23669 ft | 422 kts | 51° |
| 2026-05-08 06:00 | 59.96890 | 19.40700 | 23992 ft | 431 kts | 64° |
| 2026-05-08 06:01 | 59.97553 | 19.46565 | 24269 ft | 441 kts | 86° |
| 2026-05-08 06:01 | 59.97333 | 19.52638 | 24560 ft | 446 kts | 96° |
| 2026-05-08 06:01 | 59.96923 | 19.58888 | 24844 ft | 448 kts | 95° |
| 2026-05-08 06:01 | 59.96638 | 19.64664 | 25116 ft | 450 kts | 92° |
| 2026-05-08 06:02 | 59.96520 | 19.69814 | 25346 ft | 451 kts | 89° |
| 2026-05-08 06:02 | 59.96474 | 19.76099 | 25619 ft | 453 kts | 88° |
| 2026-05-08 06:02 | 59.96431 | 19.82441 | 25882 ft | 455 kts | 89° |
| 2026-05-08 06:02 | 59.96348 | 19.88770 | 26160 ft | 458 kts | 90° |
| 2026-05-08 06:03 | 59.96234 | 19.95121 | 26420 ft | 460 kts | 90° |
| 2026-05-08 06:03 | 59.96111 | 20.01519 | 26673 ft | 462 kts | 90° |
| 2026-05-08 06:03 | 59.95986 | 20.07942 | 26921 ft | 464 kts | 90° |
| 2026-05-08 06:03 | 59.95855 | 20.14398 | 27167 ft | 466 kts | 90° |
| 2026-05-08 06:04 | 59.95721 | 20.20881 | 27412 ft | 468 kts | 90° |
| 2026-05-08 06:04 | 59.95584 | 20.27378 | 27625 ft | 471 kts | 90° |
| 2026-05-08 06:04 | 59.95446 | 20.33932 | 27855 ft | 472 kts | 90° |
| 2026-05-08 06:04 | 59.95301 | 20.40495 | 28078 ft | 474 kts | 90° |
| 2026-05-08 06:05 | 59.95154 | 20.47087 | 28302 ft | 476 kts | 90° |
| 2026-05-08 06:05 | 59.95002 | 20.53697 | 28513 ft | 478 kts | 90° |
| 2026-05-08 06:05 | 59.94845 | 20.60248 | 28719 ft | 480 kts | 90° |
| 2026-05-08 06:05 | 59.94686 | 20.66913 | 28923 ft | 482 kts | 90° |
| 2026-05-08 06:06 | 59.94520 | 20.73601 | 29128 ft | 483 kts | 90° |
| 2026-05-08 06:06 | 59.94354 | 20.80318 | 29266 ft | 487 kts | 90° |
| 2026-05-08 06:06 | 59.94179 | 20.87088 | 29322 ft | 491 kts | 90° |
| 2026-05-08 06:07 | 59.93814 | 21.00830 | 29356 ft | 501 kts | 90° |
| 2026-05-08 06:07 | 59.93432 | 21.14866 | 29357 ft | 511 kts | 91° |
| 2026-05-08 06:08 | 59.93025 | 21.29128 | 29358 ft | 520 kts | 91° |
| 2026-05-08 06:08 | 59.92594 | 21.43478 | 29348 ft | 514 kts | 91° |
| 2026-05-08 06:09 | 59.92161 | 21.57609 | 29336 ft | 506 kts | 91° |
| 2026-05-08 06:09 | 59.91723 | 21.71538 | 29332 ft | 500 kts | 91° |
| 2026-05-08 06:10 | 59.91272 | 21.85301 | 29345 ft | 496 kts | 91° |
| 2026-05-08 06:10 | 59.90810 | 21.98950 | 29346 ft | 492 kts | 91° |
| 2026-05-08 06:11 | 59.90339 | 22.12402 | 29344 ft | 489 kts | 91° |
| 2026-05-08 06:11 | 59.89854 | 22.25921 | 29342 ft | 489 kts | 92° |
| 2026-05-08 06:12 | 59.89354 | 22.39436 | 29342 ft | 488 kts | 92° |
| 2026-05-08 06:12 | 59.88841 | 22.52919 | 29347 ft | 488 kts | 92° |
| 2026-05-08 06:13 | 59.88320 | 22.66312 | 29126 ft | 492 kts | 92° |
| 2026-05-08 06:13 | 59.88040 | 22.73202 | 28625 ft | 494 kts | 92° |
| 2026-05-08 06:13 | 59.87768 | 22.80016 | 28144 ft | 495 kts | 92° |
| 2026-05-08 06:13 | 59.87484 | 22.86866 | 27671 ft | 496 kts | 92° |
| 2026-05-08 06:14 | 59.87210 | 22.93561 | 27219 ft | 496 kts | 92° |
| 2026-05-08 06:14 | 59.86921 | 23.00426 | 26725 ft | 497 kts | 92° |
| 2026-05-08 06:14 | 59.86626 | 23.07345 | 26163 ft | 496 kts | 93° |
| 2026-05-08 06:14 | 59.86331 | 23.14173 | 25626 ft | 494 kts | 93° |
| 2026-05-08 06:15 | 59.86040 | 23.20948 | 25099 ft | 494 kts | 93° |
| 2026-05-08 06:15 | 59.85734 | 23.27760 | 24604 ft | 493 kts | 93° |
| 2026-05-08 06:15 | 59.85434 | 23.34565 | 24096 ft | 493 kts | 92° |
| 2026-05-08 06:15 | 59.85131 | 23.41339 | 23524 ft | 493 kts | 93° |
| 2026-05-08 06:16 | 59.84821 | 23.48157 | 22918 ft | 492 kts | 93° |
| 2026-05-08 06:16 | 59.84508 | 23.54925 | 22326 ft | 489 kts | 93° |
| 2026-05-08 06:16 | 59.84203 | 23.61506 | 21745 ft | 473 kts | 93° |
| 2026-05-08 06:16 | 59.83892 | 23.67933 | 21164 ft | 459 kts | 95° |
| 2026-05-08 06:17 | 59.81549 | 23.79367 | 19969 ft | 442 kts | 122° |
| 2026-05-08 06:17 | 59.79629 | 23.83973 | 19339 ft | 432 kts | 140° |
| 2026-05-08 06:17 | 59.77303 | 23.87721 | 18744 ft | 425 kts | 144° |
| 2026-05-08 06:18 | 59.74972 | 23.91323 | 18074 ft | 420 kts | 143° |
| 2026-05-08 06:18 | 59.72739 | 23.94971 | 17386 ft | 415 kts | 140° |
| 2026-05-08 06:18 | 59.70593 | 23.98786 | 16700 ft | 409 kts | 138° |
| 2026-05-08 06:18 | 59.68520 | 24.02589 | 16051 ft | 404 kts | 138° |
| 2026-05-08 06:19 | 59.66470 | 24.06323 | 15413 ft | 398 kts | 138° |
| 2026-05-08 06:19 | 59.64455 | 24.09941 | 14806 ft | 393 kts | 139° |
| 2026-05-08 06:19 | 59.62430 | 24.13524 | 14196 ft | 388 kts | 139° |
| 2026-05-08 06:19 | 59.60428 | 24.17037 | 13515 ft | 383 kts | 139° |
| 2026-05-08 06:20 | 59.58448 | 24.20512 | 12841 ft | 378 kts | 139° |
| 2026-05-08 06:20 | 59.56495 | 24.23940 | 12181 ft | 374 kts | 138° |
| 2026-05-08 06:20 | 59.54588 | 24.27296 | 11535 ft | 366 kts | 138° |
| 2026-05-08 06:20 | 59.52709 | 24.30594 | 10879 ft | 352 kts | 137° |
| 2026-05-08 06:21 | 59.50910 | 24.33751 | 10248 ft | 342 kts | 137° |
| 2026-05-08 06:21 | 59.49157 | 24.36816 | 9553 ft | 333 kts | 137° |
| 2026-05-08 06:21 | 59.47404 | 24.39677 | 8871 ft | 325 kts | 147° |
| 2026-05-08 06:21 | 59.45300 | 24.41039 | 8210 ft | 318 kts | 178° |
| 2026-05-08 06:22 | 59.43174 | 24.40282 | 7566 ft | 308 kts | 208° |
| 2026-05-08 06:22 | 59.41566 | 24.37706 | 6954 ft | 295 kts | 239° |
| 2026-05-08 06:22 | 59.40874 | 24.34088 | 6315 ft | 280 kts | 271° |
| 2026-05-08 06:22 | 59.41250 | 24.30500 | 5718 ft | 264 kts | 304° |
| 2026-05-08 06:23 | 59.42496 | 24.28132 | 5129 ft | 250 kts | 338° |
| 2026-05-08 06:23 | 59.44190 | 24.27762 | 4645 ft | 244 kts | 15° |
| 2026-05-08 06:23 | 59.45559 | 24.29513 | 4424 ft | 236 kts | 52° |
| 2026-05-08 06:23 | 59.46039 | 24.32524 | 4219 ft | 236 kts | 91° |
| 2026-05-08 06:24 | 59.45541 | 24.35535 | 4021 ft | 235 kts | 113° |
| 2026-05-08 06:24 | 59.44784 | 24.38391 | 3800 ft | 231 kts | 117° |
| 2026-05-08 06:24 | 59.43970 | 24.41059 | 3547 ft | 229 kts | 119° |
| 2026-05-08 06:24 | 59.43126 | 24.43689 | 3325 ft | 224 kts | 120° |
| 2026-05-08 06:25 | 59.42305 | 24.46174 | 3265 ft | 211 kts | 121° |
| 2026-05-08 06:25 | 59.41667 | 24.48638 | 3111 ft | 192 kts | 97° |
| 2026-05-08 06:25 | 59.41556 | 24.51131 | 2976 ft | 182 kts | 91° |
| 2026-05-08 06:25 | 59.41453 | 24.53671 | 2887 ft | 186 kts | 90° |
| 2026-05-08 06:26 | 59.41401 | 24.56116 | 2751 ft | 176 kts | 88° |
| 2026-05-08 06:26 | 59.41380 | 24.58478 | 2501 ft | 175 kts | 86° |
| 2026-05-08 06:26 | 59.41381 | 24.60900 | 2261 ft | 179 kts | 85° |
| 2026-05-08 06:26 | 59.41383 | 24.63219 | 2100 ft | 165 kts | 86° |
| 2026-05-08 06:27 | 59.41381 | 24.65473 | 1734 ft | 166 kts | 87° |
| 2026-05-08 06:27 | 59.41344 | 24.67696 | 1411 ft | 159 kts | 87° |
| 2026-05-08 06:27 | 59.41332 | 24.69749 | 1261 ft | 141 kts | 85° |
| 2026-05-08 06:27 | 59.41329 | 24.71639 | 1037 ft | 137 kts | 83° |
| 2026-05-08 06:28 | 59.41344 | 24.73522 | 839 ft | 139 kts | 86° |
| 2026-05-08 06:28 | 59.41342 | 24.75401 | 696 ft | 139 kts | 87° |
| 2026-05-08 06:28 | 59.41351 | 24.77294 | 580 ft | 140 kts | 86° |
| 2026-05-08 06:28 | 59.41334 | 24.79192 | 392 ft | 140 kts | 88° |
| 2026-05-08 06:29 | 59.41335 | 24.81106 | 190 ft | 135 kts | 87° |
| 2026-05-08 06:29 | 59.41330 | 24.82766 | 159 ft | 104 kts | 90° |
| 2026-05-08 06:29 | 59.41324 | 24.83940 | 160 ft | 67 kts | 89° |
| 2026-05-08 06:29 | 59.41323 | 24.84631 | 158 ft | 37 kts | 90° |
| 2026-05-08 06:30 | 59.41324 | 24.84938 | 160 ft | 13 kts | 76° |
| 2026-05-08 06:30 | 59.41394 | 24.85008 | 160 ft | 12 kts | 3° |
| 2026-05-08 06:30 | 59.41479 | 24.84968 | 160 ft | 13 kts | 309° |
| 2026-05-08 06:30 | 59.41495 | 24.84797 | 160 ft | 13 kts | 270° |
| 2026-05-08 06:31 | 59.41496 | 24.84600 | 160 ft | 16 kts | 270° |
| 2026-05-08 06:31 | 59.41497 | 24.84357 | 160 ft | 20 kts | 270° |
| 2026-05-08 06:31 | 59.41498 | 24.84064 | 160 ft | 23 kts | 270° |
| 2026-05-08 06:31 | 59.41498 | 24.83726 | 160 ft | 26 kts | 270° |
| 2026-05-08 06:32 | 59.41499 | 24.83474 | 160 ft | 28 kts | 270° |
| 2026-05-08 06:32 | 59.41501 | 24.82926 | 160 ft | 31 kts | 270° |
| 2026-05-08 06:32 | 59.41501 | 24.82643 | 160 ft | 31 kts | 270° |
| 2026-05-08 06:32 | 59.41502 | 24.82222 | 160 ft | 31 kts | 270° |
| 2026-05-08 06:33 | 59.41503 | 24.81796 | 160 ft | 31 kts | 270° |
| 2026-05-08 06:33 | 59.41504 | 24.81384 | 160 ft | 30 kts | 270° |
| 2026-05-08 06:33 | 59.41506 | 24.80970 | 160 ft | 30 kts | 270° |
| 2026-05-08 06:33 | 59.41506 | 24.80623 | 160 ft | 18 kts | 271° |
| 2026-05-08 06:34 | 59.41578 | 24.80510 | 160 ft | 15 kts | 359° |
| 2026-05-08 06:34 | 59.41685 | 24.80502 | 160 ft | 15 kts | 347° |
| 2026-05-08 06:34 | 59.41742 | 24.80348 | 160 ft | 15 kts | 280° |
| 2026-05-08 06:34 | 59.41749 | 24.80144 | 160 ft | 12 kts | 271° |
| 2026-05-08 06:35 | 59.41739 | 24.80060 | 160 ft | 5 kts | 220° |
| 2026-05-08 06:35 | 59.41714 | 24.80050 | 160 ft | 4 kts | 178° |
| 2026-05-08 06:35 | 59.41694 | 24.80050 | 160 ft | 0 kts | 180° |